Time;durP1;ratioP1;P1;durP2;ratioP2;P2;SDS_P1;SDS_P2;PMS_P1;PMS_P2;Temp;Humidity;BMP_temperature;BMP_pressure;BME280_temperature;BME280_humidity;BME280_pressure;Samples;Min_cycle;Max_cycle;Signal;HPM_P1;HPM_P2
2023/06/14 00:00:17;;;;;;;;;;;;;;;24.78;40.61;100584.42;103727;1283;62114;-84
2023/06/14 00:02:43;;;;;;;;;;;;;;;24.78;40.81;100586.77;104109;1288;62193;-84
2023/06/14 00:05:08;;;;;;;;;;;;;;;24.78;40.76;100591.24;104025;1282;62088;-83
2023/06/14 00:07:44;;;;;;;;;;;;;;;24.78;40.76;100590.20;103643;1282;63243;-84
2023/06/14 00:10:13;;;;;;;;;;;;;;;24.78;40.80;100589.28;103767;1284;67943;-84
2023/06/14 00:12:39;;;;;;;;;;;;;;;24.78;40.83;100589.30;104013;1285;62127;-83
2023/06/14 00:15:04;;;;;;;;;;;;;;;24.78;40.72;100589.52;103782;1282;63402;-83
2023/06/14 00:17:31;;;;;;;;;;;;;;;24.78;40.63;100586.27;103987;1286;62117;-84
2023/06/14 00:19:57;;;;;;;;;;;;;;;24.77;40.79;100587.73;103771;1289;62197;-84
2023/06/14 00:22:24;;;;;;;;;;;;;;;24.77;40.79;100587.38;103686;1283;63294;-84
2023/06/14 00:24:50;;;;;;;;;;;;;;;24.77;40.74;100587.05;104041;1282;62175;-84
2023/06/14 00:27:16;;;;;;;;;;;;;;;24.77;40.70;100582.89;103954;1288;62168;-84
2023/06/14 00:29:42;;;;;;;;;;;;;;;24.77;40.85;100580.03;103756;1288;63284;-83
2023/06/14 00:32:07;;;;;;;;;;;;;;;24.77;40.81;100578.06;103715;1288;62199;-83
2023/06/14 00:34:35;;;;;;;;;;;;;;;24.76;40.94;100575.93;104004;1283;62129;-84
2023/06/14 00:37:01;;;;;;;;;;;;;;;24.76;40.79;100573.41;103721;1283;62124;-84
2023/06/14 00:39:26;;;;;;;;;;;;;;;24.76;40.76;100572.69;103913;1283;62167;-84
2023/06/14 00:41:51;;;;;;;;;;;;;;;24.76;40.72;100571.27;103744;1289;62286;-84
2023/06/14 00:44:17;;;;;;;;;;;;;;;24.76;40.73;100571.48;103795;1283;62226;-84
2023/06/14 00:46:45;;;;;;;;;;;;;;;24.76;40.78;100570.20;103964;1287;62175;-84
2023/06/14 00:49:11;;;;;;;;;;;;;;;24.76;40.83;100565.20;103774;1283;62108;-83
2023/06/14 00:51:37;;;;;;;;;;;;;;;24.75;40.84;100563.80;103739;1289;62784;-84
2023/06/14 00:54:03;;;;;;;;;;;;;;;24.75;40.82;100560.58;103955;1284;63113;-84
2023/06/14 00:56:29;;;;;;;;;;;;;;;24.75;40.92;100557.67;103740;1288;63498;-84
2023/06/14 00:58:55;;;;;;;;;;;;;;;24.75;40.88;100553.00;103788;1288;62219;-83
2023/06/14 01:01:20;;;;;;;;;;;;;;;24.75;40.68;100561.66;103694;1288;62260;-84
2023/06/14 01:03:46;;;;;;;;;;;;;;;24.75;40.93;100558.09;103711;1283;63306;-84
2023/06/14 01:06:30;;;;;;;;;;;;;;;24.74;40.91;100560.09;103834;1288;62197;-83
2023/06/14 01:09:07;;;;;;;;;;;;;;;24.74;40.77;100554.89;103887;1283;62085;-84
2023/06/14 01:11:35;;;;;;;;;;;;;;;24.74;40.81;100551.84;103652;1288;63845;-84
2023/06/14 01:14:01;;;;;;;;;;;;;;;24.74;40.86;100552.20;104069;1282;67720;-84
2023/06/14 01:16:27;;;;;;;;;;;;;;;24.74;40.83;100554.73;103753;1285;62193;-84
2023/06/14 01:18:56;;;;;;;;;;;;;;;24.74;40.83;100552.73;103771;1286;63200;-84
2023/06/14 01:21:25;;;;;;;;;;;;;;;24.74;40.84;100552.23;103838;1298;64816;-84
2023/06/14 01:23:52;;;;;;;;;;;;;;;24.74;40.79;100551.15;103715;1288;66630;-84
2023/06/14 01:26:20;;;;;;;;;;;;;;;24.73;40.81;100551.17;103947;1288;62133;-84
2023/06/14 01:28:48;;;;;;;;;;;;;;;24.73;40.84;100551.91;103707;1288;62110;-83
2023/06/14 01:31:17;;;;;;;;;;;;;;;24.73;40.78;100551.02;103760;1288;64893;-84
2023/06/14 01:33:42;;;;;;;;;;;;;;;24.73;40.86;100545.85;104045;1283;66677;-84
2023/06/14 01:36:08;;;;;;;;;;;;;;;24.73;40.87;100546.49;103905;1288;62214;-83
2023/06/14 01:38:33;;;;;;;;;;;;;;;24.72;40.82;100544.08;103736;1288;62527;-84
2023/06/14 01:40:59;;;;;;;;;;;;;;;24.73;40.89;100539.54;103975;1288;62217;-84
2023/06/14 01:43:25;;;;;;;;;;;;;;;24.72;40.81;100539.05;103733;1289;62209;-84
2023/06/14 01:45:51;;;;;;;;;;;;;;;24.72;40.79;100537.99;103959;1289;62811;-84
2023/06/14 01:48:16;;;;;;;;;;;;;;;24.72;40.94;100541.23;103685;1287;62287;-84
2023/06/14 01:50:42;;;;;;;;;;;;;;;24.72;40.83;100538.71;103712;1288;62203;-84
2023/06/14 01:53:08;;;;;;;;;;;;;;;24.72;40.77;100544.29;103715;1288;62578;-84
2023/06/14 01:55:37;;;;;;;;;;;;;;;24.72;40.86;100545.19;103679;1289;62182;-84
2023/06/14 01:58:02;;;;;;;;;;;;;;;24.72;40.86;100544.30;103977;1283;62255;-84
2023/06/14 02:00:28;;;;;;;;;;;;;;;24.71;40.94;100543.77;103754;1288;62182;-84
2023/06/14 02:02:53;;;;;;;;;;;;;;;24.71;40.86;100546.14;103807;1285;62119;-84
2023/06/14 02:05:19;;;;;;;;;;;;;;;24.71;40.78;100548.67;103738;1289;63425;-84
2023/06/14 02:07:46;;;;;;;;;;;;;;;24.71;41.00;100548.34;103781;1283;62222;-83
2023/06/14 02:10:11;;;;;;;;;;;;;;;24.71;40.90;100553.20;104004;1282;62165;-84
2023/06/14 02:12:37;;;;;;;;;;;;;;;24.70;40.85;100556.33;103905;1283;62196;-84
2023/06/14 02:15:03;;;;;;;;;;;;;;;24.71;41.00;100557.36;103699;1289;62191;-84
2023/06/14 02:17:29;;;;;;;;;;;;;;;24.70;40.93;100557.20;103823;1289;62156;-84
2023/06/14 02:19:57;;;;;;;;;;;;;;;24.70;40.91;100561.01;103743;1286;63470;-84
2023/06/14 02:22:22;;;;;;;;;;;;;;;24.70;40.99;100567.15;103803;1283;62300;-84
2023/06/14 02:24:48;;;;;;;;;;;;;;;24.70;41.01;100569.13;103857;1288;62290;-85
2023/06/14 02:27:13;;;;;;;;;;;;;;;24.70;40.82;100568.80;103660;1289;63227;-84
2023/06/14 02:29:39;;;;;;;;;;;;;;;24.70;40.84;100568.93;103674;1283;67657;-84
2023/06/14 02:32:05;;;;;;;;;;;;;;;24.70;40.81;100570.75;103744;1283;62168;-84
2023/06/14 02:34:30;;;;;;;;;;;;;;;24.69;40.96;100570.81;103739;1289;62169;-84
2023/06/14 02:36:57;;;;;;;;;;;;;;;24.70;40.73;100574.02;103832;1287;62194;-84
2023/06/14 02:39:23;;;;;;;;;;;;;;;24.69;40.90;100578.54;103787;1289;62252;-84
2023/06/14 02:41:50;;;;;;;;;;;;;;;24.69;40.79;100583.80;103745;1289;62165;-84
2023/06/14 02:44:17;;;;;;;;;;;;;;;24.69;40.84;100584.51;103968;1283;62196;-84
2023/06/14 02:46:43;;;;;;;;;;;;;;;24.69;40.80;100585.38;103743;1289;62295;-84
2023/06/14 02:49:10;;;;;;;;;;;;;;;24.69;40.87;100584.67;103731;1289;62133;-84
2023/06/14 02:51:35;;;;;;;;;;;;;;;24.69;40.79;100587.95;103897;1283;62167;-84
2023/06/14 02:54:01;;;;;;;;;;;;;;;24.70;40.70;100588.59;103900;1288;62841;-84
2023/06/14 02:56:27;;;;;;;;;;;;;;;24.69;40.83;100587.01;103863;1283;62204;-84
2023/06/14 02:58:53;;;;;;;;;;;;;;;24.69;40.82;100592.43;103827;1287;63714;-84
2023/06/14 03:01:20;;;;;;;;;;;;;;;24.69;40.86;100591.19;103859;1288;62219;-84
2023/06/14 03:03:46;;;;;;;;;;;;;;;24.69;40.80;100592.06;103649;1288;63361;-84
2023/06/14 03:06:13;;;;;;;;;;;;;;;24.69;40.82;100592.77;103655;1288;62195;-84
2023/06/14 03:08:39;;;;;;;;;;;;;;;24.69;40.91;100597.26;103738;1283;62233;-84
2023/06/14 03:11:05;;;;;;;;;;;;;;;24.69;40.89;100600.70;103960;1284;62226;-84
2023/06/14 03:13:39;;;;;;;;;;;;;;;24.69;40.79;100604.61;103816;1283;62201;-84
2023/06/14 03:16:05;;;;;;;;;;;;;;;24.69;40.84;100607.15;103972;1286;62194;-84
2023/06/14 03:18:35;;;;;;;;;;;;;;;24.69;40.79;100608.40;103712;1283;62228;-84
2023/06/14 03:21:03;;;;;;;;;;;;;;;24.70;40.76;100612.17;103816;1283;67622;-84
2023/06/14 03:23:29;;;;;;;;;;;;;;;24.69;40.79;100620.30;104015;1283;62201;-84
2023/06/14 03:25:55;;;;;;;;;;;;;;;24.70;40.76;100619.70;104026;1283;62445;-84
2023/06/14 03:28:21;;;;;;;;;;;;;;;24.70;40.78;100623.25;103855;1289;62171;-84
2023/06/14 03:30:46;;;;;;;;;;;;;;;24.69;40.80;100622.98;103696;1284;62171;-84
2023/06/14 03:33:12;;;;;;;;;;;;;;;24.69;40.69;100621.98;103806;1288;62258;-84
2023/06/14 03:35:39;;;;;;;;;;;;;;;24.68;40.76;100621.66;103829;1286;62191;-84
2023/06/14 03:38:07;;;;;;;;;;;;;;;24.67;40.74;100623.73;104031;1286;62194;-84
2023/06/14 03:40:32;;;;;;;;;;;;;;;24.66;40.70;100623.67;103999;1282;62624;-84
2023/06/14 03:42:59;;;;;;;;;;;;;;;24.64;40.62;100626.73;103856;1289;62194;-84
2023/06/14 03:45:25;;;;;;;;;;;;;;;24.63;40.64;100624.13;103927;1286;62788;-84
2023/06/14 03:47:51;;;;;;;;;;;;;;;24.62;40.59;100625.27;104005;1286;62088;-84
2023/06/14 03:50:18;;;;;;;;;;;;;;;24.61;40.61;100626.79;103755;1292;62194;-85
2023/06/14 03:52:43;;;;;;;;;;;;;;;24.59;40.56;100624.02;103689;1288;63272;-85
2023/06/14 03:55:10;;;;;;;;;;;;;;;24.58;40.51;100625.58;103795;1288;62155;-84
2023/06/14 03:57:35;;;;;;;;;;;;;;;24.57;40.45;100625.85;103982;1288;62110;-84
2023/06/14 04:00:01;;;;;;;;;;;;;;;24.56;40.51;100626.51;103784;1283;62228;-84
2023/06/14 04:02:28;;;;;;;;;;;;;;;24.55;40.45;100625.70;103756;1288;62497;-84
2023/06/14 04:04:54;;;;;;;;;;;;;;;24.54;40.38;100632.77;103732;1283;63282;-84
2023/06/14 04:07:20;;;;;;;;;;;;;;;24.53;40.37;100637.57;103795;1288;62142;-84
2023/06/14 04:09:46;;;;;;;;;;;;;;;24.52;40.30;100636.91;103812;1283;62927;-84
2023/06/14 04:12:12;;;;;;;;;;;;;;;24.52;40.21;100636.01;103880;1283;62283;-84
2023/06/14 04:14:38;;;;;;;;;;;;;;;24.52;40.29;100632.29;104201;1282;62110;-84
2023/06/14 04:17:03;;;;;;;;;;;;;;;24.52;40.23;100636.01;104557;1283;75262;-84
2023/06/14 04:19:29;;;;;;;;;;;;;;;24.52;40.27;100636.03;104163;1286;62296;-84
2023/06/14 04:21:54;;;;;;;;;;;;;;;24.51;40.16;100633.81;104122;1283;62196;-84
2023/06/14 04:24:20;;;;;;;;;;;;;;;24.51;40.12;100635.21;104375;1283;64894;-84
2023/06/14 04:26:47;;;;;;;;;;;;;;;24.48;40.02;100637.41;104234;1286;62085;-84
2023/06/14 04:29:16;;;;;;;;;;;;;;;24.45;40.02;100643.79;104028;1283;66736;-84
2023/06/14 04:31:44;;;;;;;;;;;;;;;24.42;40.09;100644.46;104008;1283;62111;-84
2023/06/14 04:34:16;;;;;;;;;;;;;;;24.39;39.92;100652.95;104180;1288;62091;-85
2023/06/14 04:36:43;;;;;;;;;;;;;;;24.37;39.92;100656.17;104507;1283;63856;-84
2023/06/14 04:39:08;;;;;;;;;;;;;;;24.35;39.93;100660.33;103916;1283;67421;-84
2023/06/14 04:41:34;;;;;;;;;;;;;;;24.32;39.89;100662.59;104438;1286;62334;-84
2023/06/14 04:44:01;;;;;;;;;;;;;;;24.28;39.96;100662.54;105062;1282;62778;-84
2023/06/14 04:46:28;;;;;;;;;;;;;;;24.25;39.92;100664.20;105135;1283;62168;-84
2023/06/14 04:48:54;;;;;;;;;;;;;;;24.24;39.91;100667.18;106376;1282;60268;-85
2023/06/14 04:51:22;;;;;;;;;;;;;;;24.23;40.04;100670.58;105187;1283;64524;-84
2023/06/14 04:53:49;;;;;;;;;;;;;;;24.22;40.05;100674.63;105554;1283;62065;-85
2023/06/14 04:56:15;;;;;;;;;;;;;;;24.20;40.13;100680.69;105526;1283;63825;-84
2023/06/14 04:58:40;;;;;;;;;;;;;;;24.19;40.12;100687.42;105722;1283;62130;-84
2023/06/14 05:01:09;;;;;;;;;;;;;;;24.18;40.09;100685.55;105649;1281;62059;-83
2023/06/14 05:03:34;;;;;;;;;;;;;;;24.18;40.27;100685.35;105710;1285;62117;-83
2023/06/14 05:06:00;;;;;;;;;;;;;;;24.19;40.22;100685.44;105903;1283;62210;-84
2023/06/14 05:08:26;;;;;;;;;;;;;;;24.21;40.26;100692.64;105661;1282;62155;-83
2023/06/14 05:10:52;;;;;;;;;;;;;;;24.23;40.21;100697.18;105640;1282;60359;-83
2023/06/14 05:13:18;;;;;;;;;;;;;;;24.26;40.21;100697.06;105710;1282;62210;-83
2023/06/14 05:15:43;;;;;;;;;;;;;;;24.30;40.23;100698.95;105521;1283;62283;-83
2023/06/14 05:18:09;;;;;;;;;;;;;;;24.34;40.38;100703.11;105637;1281;72506;-84
2023/06/14 05:20:37;;;;;;;;;;;;;;;24.36;40.37;100706.13;105736;1282;76823;-84
2023/06/14 05:23:02;;;;;;;;;;;;;;;24.40;40.47;100708.66;105840;1282;61951;-84
2023/06/14 05:25:28;;;;;;;;;;;;;;;24.42;40.43;100708.64;105735;1282;62180;-85
2023/06/14 05:27:53;;;;;;;;;;;;;;;24.44;40.36;100706.10;105316;1289;62074;-84
2023/06/14 05:30:19;;;;;;;;;;;;;;;24.48;40.37;100709.44;105689;1280;62098;-85
2023/06/14 05:32:44;;;;;;;;;;;;;;;24.50;40.37;100713.17;105592;1283;62285;-84
2023/06/14 05:35:10;;;;;;;;;;;;;;;24.53;40.39;100711.86;105285;1283;62076;-84
2023/06/14 05:37:36;;;;;;;;;;;;;;;24.55;40.51;100711.82;105679;1282;62173;-83
2023/06/14 05:40:04;;;;;;;;;;;;;;;24.56;40.40;100715.57;105676;1281;62209;-84
2023/06/14 05:42:29;;;;;;;;;;;;;;;24.57;40.46;100714.13;105540;1283;62092;-83
2023/06/14 05:44:55;;;;;;;;;;;;;;;24.60;40.54;100720.08;105759;1281;64587;-82
2023/06/14 05:47:21;;;;;;;;;;;;;;;24.61;40.48;100720.88;106695;1281;60719;-84
2023/06/14 05:49:46;;;;;;;;;;;;;;;24.60;40.48;100723.44;106899;1282;59850;-83
2023/06/14 05:52:12;;;;;;;;;;;;;;;24.59;40.67;100725.35;106748;1282;59786;-83
2023/06/14 05:54:38;;;;;;;;;;;;;;;24.58;40.72;100726.65;106528;1288;66443;-84
2023/06/14 05:57:07;;;;;;;;;;;;;;;24.58;40.60;100722.41;106815;1281;60182;-84
2023/06/14 05:59:32;;;;;;;;;;;;;;;24.57;40.72;100725.14;106592;1283;61107;-84
2023/06/14 06:01:59;;;;;;;;;;;;;;;24.57;40.55;100723.89;106715;1282;60329;-84
2023/06/14 06:04:25;;;;;;;;;;;;;;;24.58;40.70;100721.33;106875;1282;61118;-84
2023/06/14 06:06:51;;;;;;;;;;;;;;;24.59;40.88;100723.36;106633;1282;60843;-83
2023/06/14 06:09:16;;;;;;;;;;;;;;;24.60;40.87;100723.45;106857;1281;61060;-84
2023/06/14 06:11:42;;;;;;;;;;;;;;;24.62;40.79;100726.19;106814;1285;60483;-83
2023/06/14 06:14:07;;;;;;;;;;;;;;;24.64;40.96;100726.60;106846;1283;59944;-84
2023/06/14 06:16:33;;;;;;;;;;;;;;;24.66;41.02;100722.23;106796;1283;60077;-85
2023/06/14 06:18:59;;;;;;;;;;;;;;;24.69;41.01;100722.93;106855;1283;60438;-84
2023/06/14 06:21:24;;;;;;;;;;;;;;;24.70;41.09;100721.52;106568;1282;60292;-81
2023/06/14 06:23:50;;;;;;;;;;;;;;;24.72;41.06;100717.20;106904;1282;60246;-82
2023/06/14 06:26:15;;;;;;;;;;;;;;;24.73;41.22;100716.00;106560;1282;60321;-81
2023/06/14 06:28:41;;;;;;;;;;;;;;;24.75;41.05;100715.66;105883;1285;62177;-81
2023/06/14 06:31:07;;;;;;;;;;;;;;;24.76;41.18;100716.48;105563;1283;60428;-82
2023/06/14 06:33:32;;;;;;;;;;;;;;;24.78;41.01;100718.52;105672;1283;60191;-82
2023/06/14 06:35:58;;;;;;;;;;;;;;;24.79;41.03;100718.08;105738;1280;62193;-82
2023/06/14 06:38:23;;;;;;;;;;;;;;;24.79;41.22;100721.84;105358;1280;62091;-82
2023/06/14 06:40:49;;;;;;;;;;;;;;;24.81;41.28;100720.79;105474;1283;62087;-82
2023/06/14 06:43:16;;;;;;;;;;;;;;;24.80;41.19;100721.40;105542;1282;60867;-85
2023/06/14 06:45:44;;;;;;;;;;;;;;;24.79;41.29;100721.46;105589;1282;62207;-82
2023/06/14 06:48:10;;;;;;;;;;;;;;;24.81;41.42;100723.80;105614;1285;72518;-83
2023/06/14 06:50:36;;;;;;;;;;;;;;;24.82;41.31;100727.92;105878;1285;61248;-83
2023/06/14 06:53:01;;;;;;;;;;;;;;;24.80;41.36;100723.72;105883;1280;62293;-82
2023/06/14 06:55:27;;;;;;;;;;;;;;;24.81;41.40;100723.68;105962;1281;60994;-83
2023/06/14 06:57:53;;;;;;;;;;;;;;;24.81;41.51;100724.71;105669;1285;62168;-84
2023/06/14 07:00:19;;;;;;;;;;;;;;;24.81;41.51;100720.27;105665;1283;62183;-84
2023/06/14 07:02:46;;;;;;;;;;;;;;;24.78;41.59;100722.99;105628;1285;61949;-84
2023/06/14 07:05:11;;;;;;;;;;;;;;;24.76;41.62;100721.33;106016;1282;62110;-83
2023/06/14 07:07:37;;;;;;;;;;;;;;;24.76;41.67;100722.75;105789;1280;60529;-82
2023/06/14 07:10:04;;;;;;;;;;;;;;;24.78;41.65;100722.45;105673;1283;61299;-84
2023/06/14 07:12:33;;;;;;;;;;;;;;;24.81;41.77;100717.90;106475;1287;66686;-82
2023/06/14 07:14:59;;;;;;;;;;;;;;;24.83;41.81;100717.19;106049;1287;633295;-83
2023/06/14 07:17:25;;;;;;;;;;;;;;;24.85;41.90;100719.67;106666;1281;60150;-82
2023/06/14 07:19:51;;;;;;;;;;;;;;;24.85;41.87;100719.52;106799;1282;60925;-82
2023/06/14 07:22:20;;;;;;;;;;;;;;;24.84;41.96;100722.30;106689;1282;66581;-82
2023/06/14 07:24:46;;;;;;;;;;;;;;;24.84;41.74;100718.48;106760;1280;60104;-83
2023/06/14 07:27:13;;;;;;;;;;;;;;;24.86;41.89;100720.48;106647;1283;60434;-83
2023/06/14 07:29:38;;;;;;;;;;;;;;;24.87;42.03;100721.42;106615;1283;60460;-82
2023/06/14 07:32:05;;;;;;;;;;;;;;;24.88;41.95;100721.21;106723;1287;59958;-83
2023/06/14 07:34:31;;;;;;;;;;;;;;;24.90;41.99;100719.44;106677;1283;61000;-82
2023/06/14 07:36:57;;;;;;;;;;;;;;;24.92;41.89;100713.66;106962;1282;59789;-82
2023/06/14 07:39:23;;;;;;;;;;;;;;;24.95;42.00;100713.62;106491;1283;61246;-82
2023/06/14 07:41:48;;;;;;;;;;;;;;;24.96;41.83;100714.27;106905;1281;60257;-82
2023/06/14 07:44:14;;;;;;;;;;;;;;;24.97;41.95;100709.27;106541;1282;61007;-82
2023/06/14 07:46:40;;;;;;;;;;;;;;;25.00;42.22;100709.73;106693;1283;60315;-82
2023/06/14 07:49:06;;;;;;;;;;;;;;;25.03;42.37;100703.52;106894;1282;60361;-82
2023/06/14 07:51:32;;;;;;;;;;;;;;;25.05;42.42;100701.90;106648;1280;60608;-82
2023/06/14 07:54:00;;;;;;;;;;;;;;;25.06;42.67;100703.19;106490;1283;60231;-81
2023/06/14 07:56:26;;;;;;;;;;;;;;;25.08;42.70;100705.61;106442;1284;61121;-83
2023/06/14 07:58:52;;;;;;;;;;;;;;;25.08;42.66;100703.42;106778;1281;60022;-83
2023/06/14 08:01:20;;;;;;;;;;;;;;;25.07;42.37;100704.38;106602;1282;60349;-84
2023/06/14 08:03:45;;;;;;;;;;;;;;;25.07;42.56;100704.39;106487;1283;60752;-82
2023/06/14 08:06:11;;;;;;;;;;;;;;;25.05;42.20;100706.20;106852;1282;60961;-86
2023/06/14 08:08:36;;;;;;;;;;;;;;;25.04;42.31;100705.91;106502;1283;61660;-82
2023/06/14 08:11:02;;;;;;;;;;;;;;;25.04;42.29;100706.45;106363;1283;61242;-82
2023/06/14 08:13:27;;;;;;;;;;;;;;;25.06;42.34;100705.58;106309;1286;61599;-82
2023/06/14 08:15:53;;;;;;;;;;;;;;;25.07;42.26;100704.59;106466;1288;67822;-82
2023/06/14 08:18:18;;;;;;;;;;;;;;;25.09;42.39;100705.27;105475;1285;62326;-82
2023/06/14 08:20:44;;;;;;;;;;;;;;;25.12;42.63;100705.42;105568;1284;62280;-83
2023/06/14 08:23:10;;;;;;;;;;;;;;;25.11;42.66;100702.23;105512;1283;60427;-84
2023/06/14 08:25:35;;;;;;;;;;;;;;;25.12;42.88;100701.84;105593;1283;62054;-82
2023/06/14 08:28:02;;;;;;;;;;;;;;;25.11;42.53;100700.77;105836;1284;62107;-82
2023/06/14 08:30:27;;;;;;;;;;;;;;;25.10;42.57;100699.25;105966;1284;60446;-80
2023/06/14 08:32:55;;;;;;;;;;;;;;;25.11;42.76;100699.93;105661;1287;62128;-81
2023/06/14 08:35:21;;;;;;;;;;;;;;;25.13;42.71;100697.27;105582;1286;63864;-81
2023/06/14 08:37:46;;;;;;;;;;;;;;;25.14;42.90;100693.16;105377;1290;62091;-81
2023/06/14 08:40:19;;;;;;;;;;;;;;;25.15;42.93;100688.91;105489;1285;61032;-82
2023/06/14 08:42:46;;;;;;;;;;;;;;;25.16;42.84;100686.19;105636;1285;60353;-82
2023/06/14 08:45:11;;;;;;;;;;;;;;;25.17;43.00;100685.53;105316;1285;63565;-84
2023/06/14 08:47:37;;;;;;;;;;;;;;;25.19;43.05;100688.01;105066;1285;61121;-82
2023/06/14 08:50:03;;;;;;;;;;;;;;;25.21;43.04;100683.57;105680;1285;62134;-82
2023/06/14 08:52:30;;;;;;;;;;;;;;;25.20;42.83;100676.77;105732;1284;60643;-82
2023/06/14 08:54:55;;;;;;;;;;;;;;;25.18;42.77;100676.21;105524;1285;62031;-82
2023/06/14 08:57:21;;;;;;;;;;;;;;;25.19;42.92;100675.80;105705;1284;62216;-84
2023/06/14 08:59:48;;;;;;;;;;;;;;;25.18;42.88;100670.98;105736;1285;60802;-83
2023/06/14 09:02:17;;;;;;;;;;;;;;;25.16;42.92;100667.95;105508;1285;62131;-83
2023/06/14 09:04:44;;;;;;;;;;;;;;;25.16;42.75;100670.66;105663;1285;60930;-84
2023/06/14 09:07:10;;;;;;;;;;;;;;;25.18;43.02;100672.84;105593;1284;63774;-83
2023/06/14 09:09:38;;;;;;;;;;;;;;;25.18;42.98;100675.34;105563;1285;60557;-83
2023/06/14 09:12:04;;;;;;;;;;;;;;;25.18;42.99;100671.16;105571;1285;60794;-82
2023/06/14 09:14:29;;;;;;;;;;;;;;;25.19;43.19;100674.02;105400;1285;62125;-84
2023/06/14 09:16:55;;;;;;;;;;;;;;;25.18;43.12;100676.02;105659;1285;62080;-82
2023/06/14 09:19:24;;;;;;;;;;;;;;;25.18;43.19;100673.67;105931;1284;62114;-82
2023/06/14 09:21:49;;;;;;;;;;;;;;;25.20;43.19;100677.34;105662;1285;60594;-82
2023/06/14 09:24:15;;;;;;;;;;;;;;;25.19;43.24;100678.14;105492;1285;61910;-82
2023/06/14 09:26:41;;;;;;;;;;;;;;;25.20;43.30;100679.10;105763;1284;62031;-82
2023/06/14 09:29:07;;;;;;;;;;;;;;;25.21;43.32;100679.70;105409;1284;62116;-82
2023/06/14 09:31:33;;;;;;;;;;;;;;;25.22;43.24;100675.87;105320;1285;61104;-82
2023/06/14 09:33:58;;;;;;;;;;;;;;;25.22;43.07;100676.61;105079;1284;62191;-82
2023/06/14 09:36:24;;;;;;;;;;;;;;;25.22;43.08;100672.98;105336;1284;60186;-82
2023/06/14 09:38:56;;;;;;;;;;;;;;;25.22;42.93;100667.02;105001;1285;62087;-82
2023/06/14 09:41:39;;;;;;;;;;;;;;;25.22;43.15;100662.52;105367;1284;67506;-82
2023/06/14 09:44:06;;;;;;;;;;;;;;;25.22;42.94;100667.17;104978;1290;61928;-82
2023/06/14 09:46:32;;;;;;;;;;;;;;;25.23;43.00;100665.88;105348;1288;60424;-82
2023/06/14 09:48:57;;;;;;;;;;;;;;;25.22;42.90;100665.40;105454;1288;62099;-82
2023/06/14 09:51:23;;;;;;;;;;;;;;;25.22;42.96;100667.02;105250;1285;62109;-82
2023/06/14 09:53:48;;;;;;;;;;;;;;;25.21;42.93;100669.07;105201;1285;59828;-87
2023/06/14 09:56:15;;;;;;;;;;;;;;;25.22;42.91;100667.96;105396;1288;62178;-82
2023/06/14 09:58:41;;;;;;;;;;;;;;;25.21;43.03;100669.15;105163;1285;62182;-85
2023/06/14 10:01:06;;;;;;;;;;;;;;;25.21;43.07;100666.25;105367;1285;60551;-83
2023/06/14 10:03:32;;;;;;;;;;;;;;;25.20;43.09;100663.98;105607;1286;60534;-86
2023/06/14 10:06:01;;;;;;;;;;;;;;;25.20;43.06;100661.95;105543;1284;59694;-84
2023/06/14 10:08:27;;;;;;;;;;;;;;;25.21;43.03;100661.90;105724;1285;61506;-82
2023/06/14 10:10:53;;;;;;;;;;;;;;;25.21;43.09;100659.71;105397;1285;64942;-82
2023/06/14 10:13:18;;;;;;;;;;;;;;;25.20;43.02;100654.94;105330;1288;60331;-84
2023/06/14 10:16:03;;;;;;;;;;;;;;;25.20;43.08;100654.65;105422;1290;62112;-83
2023/06/14 10:18:52;;;;;;;;;;;;;;;25.18;43.15;100652.96;105717;1285;62143;-83
2023/06/14 10:21:30;;;;;;;;;;;;;;;25.17;43.15;100650.55;105418;1285;63887;-83
2023/06/14 10:23:56;;;;;;;;;;;;;;;25.18;43.08;100648.52;105534;1284;66707;-83
2023/06/14 10:26:22;;;;;;;;;;;;;;;25.19;43.17;100643.89;105787;1284;62108;-83
2023/06/14 10:28:58;;;;;;;;;;;;;;;25.20;43.30;100644.19;105956;1288;60075;-84
2023/06/14 10:31:23;;;;;;;;;;;;;;;25.21;43.37;100643.54;105665;1284;63914;-83
2023/06/14 10:33:50;;;;;;;;;;;;;;;25.22;43.24;100642.03;105368;1285;61640;-83
2023/06/14 10:36:22;;;;;;;;;;;;;;;25.21;43.28;100642.08;105526;1284;62138;-83
2023/06/14 10:39:00;;;;;;;;;;;;;;;25.21;43.22;100644.46;105422;1285;61800;-83
2023/06/14 10:41:27;;;;;;;;;;;;;;;25.21;43.19;100648.02;105271;1285;63759;-83
2023/06/14 10:43:53;;;;;;;;;;;;;;;25.21;43.13;100646.95;105833;1285;67764;-82
2023/06/14 10:46:22;;;;;;;;;;;;;;;25.21;43.16;100649.50;105238;1285;60635;-83
2023/06/14 10:48:48;;;;;;;;;;;;;;;25.19;43.05;100649.98;105760;1285;61553;-83
2023/06/14 10:51:21;;;;;;;;;;;;;;;25.19;42.81;100650.41;105968;1284;60189;-85
2023/06/14 10:53:47;;;;;;;;;;;;;;;25.17;42.79;100649.10;105736;1285;67467;-81
2023/06/14 10:56:31;;;;;;;;;;;;;;;25.17;42.73;100647.71;106337;1285;60360;-80
2023/06/14 10:58:57;;;;;;;;;;;;;;;25.17;42.75;100652.36;106606;1284;60301;-81
2023/06/14 11:01:36;;;;;;;;;;;;;;;25.18;42.84;100652.45;106443;1288;60099;-81
2023/06/14 11:04:11;;;;;;;;;;;;;;;25.19;42.77;100650.20;106663;1285;67717;-81
2023/06/14 11:06:44;;;;;;;;;;;;;;;25.20;42.87;100645.58;106672;1285;61683;-81
2023/06/14 11:09:29;;;;;;;;;;;;;;;25.22;42.56;100646.17;106696;1284;60029;-81
2023/06/14 11:11:54;;;;;;;;;;;;;;;25.23;42.67;100649.63;105876;1285;63794;-83
2023/06/14 11:14:21;;;;;;;;;;;;;;;25.24;42.81;100645.78;104976;1285;62182;-82
2023/06/14 11:16:49;;;;;;;;;;;;;;;25.25;42.56;100641.77;104846;1285;62191;-82
2023/06/14 11:19:17;;;;;;;;;;;;;;;25.25;42.55;100640.32;105113;1285;61512;-82
2023/06/14 11:21:42;;;;;;;;;;;;;;;25.25;42.55;100637.23;105334;1283;64905;-81
2023/06/14 11:24:11;;;;;;;;;;;;;;;25.25;42.42;100635.43;105234;1285;62214;-82
2023/06/14 11:26:37;;;;;;;;;;;;;;;25.25;42.45;100638.51;104717;1285;62117;-81
2023/06/14 11:29:03;;;;;;;;;;;;;;;25.24;42.53;100640.69;105115;1284;62196;-80
2023/06/14 11:31:28;;;;;;;;;;;;;;;25.25;42.52;100638.33;104780;1285;62366;-81
2023/06/14 11:33:55;;;;;;;;;;;;;;;25.24;42.56;100636.03;104794;1284;62029;-81
2023/06/14 11:36:20;;;;;;;;;;;;;;;25.24;42.54;100638.19;104680;1284;62224;-81
2023/06/14 11:38:46;;;;;;;;;;;;;;;25.24;42.44;100635.31;104779;1285;62067;-82
2023/06/14 11:41:12;;;;;;;;;;;;;;;25.23;42.39;100634.16;104760;1289;62126;-82
2023/06/14 11:43:40;;;;;;;;;;;;;;;25.23;42.22;100638.27;104214;1285;63503;-81
2023/06/14 11:46:06;;;;;;;;;;;;;;;25.22;42.33;100632.05;104384;1285;62192;-81
2023/06/14 11:48:38;;;;;;;;;;;;;;;25.22;42.23;100627.25;104446;1284;62294;-82
2023/06/14 11:51:04;;;;;;;;;;;;;;;25.21;42.26;100625.30;104350;1286;62172;-82
2023/06/14 11:53:30;;;;;;;;;;;;;;;25.21;42.09;100625.34;104587;1290;62192;-82
2023/06/14 11:55:56;;;;;;;;;;;;;;;25.20;42.04;100620.03;104864;1285;62225;-82
2023/06/14 11:58:21;;;;;;;;;;;;;;;25.20;42.00;100619.81;104788;1285;62094;-82
2023/06/14 12:00:48;;;;;;;;;;;;;;;25.20;42.12;100615.53;104591;1288;62099;-82
2023/06/14 12:03:14;;;;;;;;;;;;;;;25.20;42.03;100615.33;104423;1284;62244;-82
2023/06/14 12:05:39;;;;;;;;;;;;;;;25.20;41.83;100616.48;104447;1285;62119;-82
2023/06/14 12:08:07;;;;;;;;;;;;;;;25.19;41.92;100613.27;104274;1290;62131;-83
2023/06/14 12:10:43;;;;;;;;;;;;;;;25.19;41.97;100614.02;104521;1285;62154;-82
2023/06/14 12:13:10;;;;;;;;;;;;;;;25.19;41.86;100618.00;104367;1285;62231;-82
2023/06/14 12:15:35;;;;;;;;;;;;;;;25.19;41.88;100617.08;104349;1285;62115;-82
2023/06/14 12:18:01;;;;;;;;;;;;;;;25.19;41.93;100613.30;104544;1285;62206;-82
2023/06/14 12:20:30;;;;;;;;;;;;;;;25.18;41.75;100612.45;104283;1285;62199;-81
2023/06/14 12:22:57;;;;;;;;;;;;;;;25.18;41.76;100613.86;104537;1285;62242;-81